Time;durP1;ratioP1;P1;durP2;ratioP2;P2;SDS_P1;SDS_P2;PMS_P1;PMS_P2;Temp;Humidity;BMP_temperature;BMP_pressure;BME280_temperature;BME280_humidity;BME280_pressure;Samples;Min_cycle;Max_cycle;Signal;HPM_P1;HPM_P2
2021/01/24 00:00:30;;;;;;;30.77;16.87;;;;;;;0.76;86.40;98727.70;1791193;80;21529;-78
2021/01/24 00:02:58;;;;;;;17.95;11.45;;;;;;;0.74;86.41;98724.38;1791027;80;21113;-78
2021/01/24 00:05:24;;;;;;;18.02;11.35;;;;;;;0.73;86.42;98721.92;1791243;80;21177;-78
2021/01/24 00:07:50;;;;;;;18.65;12.45;;;;;;;0.70;86.40;98719.60;1791179;80;21197;-79
2021/01/24 00:10:17;;;;;;;15.23;10.38;;;;;;;0.69;86.40;98721.88;1791122;80;21165;-79
2021/01/24 00:12:44;;;;;;;11.57;8.45;;;;;;;0.66;86.39;98720.38;1791112;80;21656;-79
2021/01/24 00:15:11;;;;;;;14.95;9.25;;;;;;;0.64;86.41;98720.17;1791019;80;21156;-79
2021/01/24 00:17:37;;;;;;;20.05;12.03;;;;;;;0.62;86.40;98720.82;1791201;80;21144;-78
2021/01/24 00:20:05;;;;;;;16.93;10.45;;;;;;;0.60;86.41;98721.47;1790844;80;21165;-78
2021/01/24 00:22:31;;;;;;;13.90;8.48;;;;;;;0.58;86.42;98718.15;1788242;80;21163;-78
2021/01/24 00:24:58;;;;;;;15.32;8.70;;;;;;;0.57;86.41;98724.36;1779761;80;21116;-79
2021/01/24 00:27:24;;;;;;;17.85;11.00;;;;;;;0.55;86.41;98723.21;1779755;80;21125;-78
2021/01/24 00:29:51;;;;;;;16.77;9.70;;;;;;;0.55;86.40;98721.91;1779779;80;21163;-79
2021/01/24 00:32:18;;;;;;;19.15;9.88;;;;;;;0.57;86.40;98720.42;1779766;79;22046;-79
2021/01/24 00:34:45;;;;;;;12.18;7.67;;;;;;;0.60;86.40;98723.58;1782621;80;21128;-78
2021/01/24 00:37:12;;;;;;;11.73;6.92;;;;;;;0.62;86.40;98713.78;1782813;79;21160;-78
2021/01/24 00:39:39;;;;;;;11.22;8.45;;;;;;;0.64;86.42;98713.13;1782809;79;21132;-78
2021/01/24 00:42:05;;;;;;;14.25;8.55;;;;;;;0.68;86.43;98705.31;1782702;80;21187;-78
2021/01/24 00:44:32;;;;;;;16.23;10.68;;;;;;;0.74;86.46;98706.53;1798943;78;21628;-79
2021/01/24 00:46:59;;;;;;;17.23;10.10;;;;;;;0.77;86.48;98704.91;1826746;78;21119;-78
2021/01/24 00:49:25;;;;;;;15.68;10.53;;;;;;;0.80;86.50;98704.13;1813562;78;21172;-78
2021/01/24 00:51:52;;;;;;;16.55;10.35;;;;;;;0.82;86.51;98698.71;1794278;80;21665;-79
2021/01/24 00:54:18;;;;;;;14.38;9.08;;;;;;;0.81;86.50;98691.33;1792920;80;21197;-78
2021/01/24 00:56:45;;;;;;;14.85;9.95;;;;;;;0.82;86.51;98693.47;1794065;80;21214;-78
2021/01/24 00:59:11;;;;;;;19.98;14.53;;;;;;;0.81;86.51;98698.40;1794122;80;21153;-78
2021/01/24 01:01:38;;;;;;;24.92;16.62;;;;;;;0.84;86.51;98699.41;1796841;79;21122;-78
2021/01/24 01:04:04;;;;;;;48.80;24.30;;;;;;;0.86;86.52;98693.51;1800088;79;21167;-78
2021/01/24 01:06:31;;;;;;;42.43;22.15;;;;;;;0.88;86.48;98693.69;1800066;79;21155;-78
2021/01/24 01:08:58;;;;;;;59.60;31.93;;;;;;;0.88;86.48;98692.89;1800957;79;21202;-78
2021/01/24 01:11:24;;;;;;;39.92;20.25;;;;;;;0.91;86.48;98687.33;1799878;79;21131;-78
2021/01/24 01:13:51;;;;;;;42.50;19.67;;;;;;;0.95;86.51;98676.36;1800161;79;21191;-78
2021/01/24 01:16:17;;;;;;;30.17;14.95;;;;;;;0.99;86.49;98673.77;1800016;79;21592;-79
2021/01/24 01:18:44;;;;;;;33.67;15.50;;;;;;;0.99;86.49;98675.57;1800241;79;21132;-78
2021/01/24 01:21:10;;;;;;;40.40;18.52;;;;;;;1.00;86.51;98682.48;1799969;79;22120;-79
2021/01/24 01:23:37;;;;;;;34.43;15.78;;;;;;;1.00;86.54;98685.10;1796028;79;21149;-79
2021/01/24 01:26:03;;;;;;;86.22;40.45;;;;;;;0.99;86.52;98686.89;1794651;79;21165;-78
2021/01/24 01:28:30;;;;;;;37.38;19.50;;;;;;;1.00;86.55;98683.30;1793991;80;21191;-79
2021/01/24 01:30:56;;;;;;;66.57;27.95;;;;;;;0.96;86.57;98679.81;1794338;80;21187;-78
2021/01/24 01:33:22;;;;;;;52.33;24.75;;;;;;;0.92;86.59;98678.46;1794111;79;22126;-79
2021/01/24 01:35:49;;;;;;;60.78;30.60;;;;;;;0.88;86.56;98681.08;1794373;80;21165;-79
2021/01/24 01:38:15;;;;;;;60.05;27.20;;;;;;;0.84;86.53;98677.10;1794233;79;21169;-79
2021/01/24 01:40:41;;;;;;;45.80;21.80;;;;;;;0.85;86.50;98679.56;1794433;80;21116;-78
2021/01/24 01:43:08;;;;;;;63.75;26.45;;;;;;;0.85;86.49;98670.86;1794341;80;21105;-78
2021/01/24 01:45:34;;;;;;;62.23;23.77;;;;;;;0.89;86.49;98674.83;1795983;79;21183;-78
2021/01/24 01:48:00;;;;;;;62.27;24.00;;;;;;;0.94;86.48;98675.22;1797096;79;21628;-78
2021/01/24 01:50:27;;;;;;;79.42;33.15;;;;;;;0.97;86.48;98681.47;1796900;79;21128;-78
2021/01/24 01:52:53;;;;;;;49.00;22.93;;;;;;;0.98;86.48;98679.19;1797085;79;21203;-78
2021/01/24 01:55:19;;;;;;;38.17;20.10;;;;;;;0.99;86.49;98675.57;1801640;78;21574;-79
2021/01/24 01:57:46;;;;;;;98.42;41.58;;;;;;;1.02;86.46;98674.47;1794539;79;21251;-78
2021/01/24 02:00:13;;;;;;;78.40;36.60;;;;;;;1.03;86.46;98674.78;1794351;80;21157;-78
2021/01/24 02:02:57;;;;;;;50.20;21.25;;;;;;;0.96;86.45;98683.75;1794631;80;21184;-79
2021/01/24 02:05:53;;;;;;;36.15;17.75;;;;;;;0.92;86.46;98688.96;1794367;79;21191;-79
2021/01/24 02:08:27;;;;;;;32.53;17.12;;;;;;;0.88;86.46;98684.50;1794392;79;21133;-79
2021/01/24 02:11:08;;;;;;;34.40;17.62;;;;;;;0.90;86.47;98690.92;1767937;80;21173;-79
2021/01/24 02:14:05;;;;;;;34.75;17.07;;;;;;;0.92;86.48;98695.52;1794477;80;21121;-79
2021/01/24 02:16:28;;;;;;;40.60;21.07;;;;;;;0.97;86.50;98694.11;1785815;78;21122;-78
2021/01/24 02:18:55;;;;;;;40.28;20.52;;;;;;;0.99;86.48;98701.81;1794502;79;22386;-79
2021/01/24 02:21:33;;;;;;;36.20;18.87;;;;;;;0.97;86.47;98702.47;1794356;80;21117;-78
2021/01/24 02:24:05;;;;;;;39.27;20.00;;;;;;;0.94;86.47;98699.66;1821754;78;22246;-79
2021/01/24 02:27:05;;;;;;;41.37;20.70;;;;;;;0.93;86.48;98694.55;1827001;78;21163;-78
2021/01/24 02:30:15;;;;;;;38.02;19.42;;;;;;;0.94;86.50;98690.97;1826462;78;21134;-78
2021/01/24 02:32:42;;;;;;;37.65;20.00;;;;;;;0.96;86.47;98687.69;1826660;78;21143;-78
2021/01/24 02:35:08;;;;;;;33.48;18.32;;;;;;;0.94;86.46;98688.34;1824371;78;21132;-78
2021/01/24 02:37:35;;;;;;;34.55;17.62;;;;;;;0.91;86.46;98692.09;1823683;78;22015;-78
2021/01/24 02:40:01;;;;;;;33.15;18.35;;;;;;;0.89;86.46;98693.20;1824130;78;21107;-78
2021/01/24 02:42:27;;;;;;;56.08;25.80;;;;;;;0.87;86.45;98682.05;1796513;78;21135;-78
2021/01/24 02:44:54;;;;;;;42.83;22.27;;;;;;;0.89;86.45;98681.39;1824094;78;21167;-78
2021/01/24 02:47:20;;;;;;;35.52;18.05;;;;;;;0.91;86.42;98681.60;1823972;78;21135;-78
2021/01/24 02:49:46;;;;;;;36.45;17.82;;;;;;;0.88;86.40;98681.08;1823814;78;21199;-78
2021/01/24 02:52:13;;;;;;;30.40;16.57;;;;;;;0.87;86.40;98678.94;1823512;78;21135;-78
2021/01/24 02:54:39;;;;;;;34.40;18.65;;;;;;;0.89;86.42;98681.39;1824215;78;21104;-78
2021/01/24 02:57:05;;;;;;;39.10;20.27;;;;;;;0.89;86.40;98675.66;1824373;78;21167;-78
2021/01/24 02:59:33;;;;;;;32.45;18.50;;;;;;;0.85;86.40;98673.48;1796684;78;21111;-78
2021/01/24 03:01:59;;;;;;;36.28;19.23;;;;;;;0.80;86.41;98671.33;1824048;78;21198;-78
2021/01/24 03:04:26;;;;;;;37.48;18.67;;;;;;;0.74;86.39;98668.49;1824129;78;21625;-78
2021/01/24 03:06:52;;;;;;;35.55;20.48;;;;;;;0.71;86.40;98666.14;1824189;78;21163;-78
2021/01/24 03:09:18;;;;;;;40.38;20.00;;;;;;;0.72;86.39;98665.17;1824114;78;21200;-78
2021/01/24 03:11:46;;;;;;;38.10;20.57;;;;;;;0.71;86.39;98666.14;1824159;78;21143;-78
2021/01/24 03:14:19;;;;;;;37.58;21.52;;;;;;;0.72;86.37;98665.17;1796947;78;22290;-78
2021/01/24 03:16:48;;;;;;;40.92;21.93;;;;;;;0.74;86.33;98655.38;1823861;78;21130;-78
2021/01/24 03:19:17;;;;;;;41.63;20.82;;;;;;;0.74;86.33;98659.31;1823977;78;21144;-78
2021/01/24 03:21:44;;;;;;;49.25;22.42;;;;;;;0.73;86.33;98658.48;1824237;78;21568;-78
2021/01/24 03:24:10;;;;;;;50.40;25.37;;;;;;;0.77;86.30;98652.45;1798631;78;21170;-78
2021/01/24 03:26:36;;;;;;;50.83;23.83;;;;;;;0.77;86.29;98650.66;1794174;79;22170;-78
2021/01/24 03:29:03;;;;;;;50.50;24.77;;;;;;;0.77;86.29;98648.52;1794214;79;21130;-78
2021/01/24 03:31:32;;;;;;;51.37;26.20;;;;;;;0.77;86.30;98645.41;1796915;79;21174;-78
2021/01/24 03:33:59;;;;;;;55.03;27.47;;;;;;;0.79;86.29;98646.06;1795576;79;21566;-78
2021/01/24 03:36:26;;;;;;;56.33;27.05;;;;;;;0.76;86.29;98641.61;1760758;80;21400;-78
2021/01/24 03:38:53;;;;;;;51.33;26.48;;;;;;;0.73;86.30;98644.53;1791208;80;21264;-78
2021/01/24 03:41:19;;;;;;;47.45;23.62;;;;;;;0.72;86.30;98645.02;1791092;79;22030;-79
2021/01/24 03:43:45;;;;;;;50.30;21.65;;;;;;;0.73;86.30;98645.37;1791255;79;21154;-79
2021/01/24 03:46:12;;;;;;;40.55;21.05;;;;;;;0.68;86.30;98651.53;1791234;80;21527;-78
2021/01/24 03:48:38;;;;;;;43.30;21.30;;;;;;;0.66;86.27;98643.01;1791182;80;21180;-79
2021/01/24 03:51:04;;;;;;;39.50;19.80;;;;;;;0.67;86.27;98642.52;1791618;79;21202;-77
2021/01/24 03:53:31;;;;;;;39.67;21.15;;;;;;;0.65;86.30;98646.59;1791839;80;21175;-77
2021/01/24 03:55:57;;;;;;;42.10;20.02;;;;;;;0.63;86.26;98641.17;1791063;79;21395;-78
2021/01/24 03:58:23;;;;;;;41.18;21.42;;;;;;;0.63;86.26;98646.42;1791134;80;21174;-78
2021/01/24 04:00:49;;;;;;;42.95;20.20;;;;;;;0.62;86.24;98643.45;1791199;80;21122;-78
2021/01/24 04:03:16;;;;;;;39.30;20.65;;;;;;;0.62;86.25;98638.20;1791289;80;21202;-78
2021/01/24 04:05:42;;;;;;;39.25;20.30;;;;;;;0.59;86.27;98645.06;1791058;80;21130;-78
2021/01/24 04:08:08;;;;;;;39.95;18.07;;;;;;;0.57;86.26;98643.06;1790913;80;21170;-78
2021/01/24 04:10:35;;;;;;;32.93;15.83;;;;;;;0.57;86.28;98648.30;1791204;80;21130;-78
2021/01/24 04:13:01;;;;;;;34.10;17.60;;;;;;;0.55;86.26;98645.02;1791135;80;21154;-78
2021/01/24 04:15:28;;;;;;;35.45;17.25;;;;;;;0.54;86.25;98647.30;1791175;80;21250;-78
2021/01/24 04:17:54;;;;;;;33.05;17.45;;;;;;;0.53;86.23;98646.98;1790997;80;21923;-78
2021/01/24 04:20:20;;;;;;;29.07;16.32;;;;;;;0.52;86.25;98653.19;1791120;79;21190;-78
2021/01/24 04:22:48;;;;;;;31.68;16.42;;;;;;;0.57;86.26;98654.86;1802525;78;21107;-78
2021/01/24 04:25:16;;;;;;;34.35;17.98;;;;;;;0.60;86.27;98651.97;1792393;78;21123;-78
2021/01/24 04:27:43;;;;;;;32.25;18.50;;;;;;;0.64;86.24;98657.22;1823717;78;21134;-78
2021/01/24 04:30:10;;;;;;;31.05;17.25;;;;;;;0.67;86.26;98655.12;1823387;78;21128;-78
2021/01/24 04:32:37;;;;;;;34.15;18.12;;;;;;;0.69;86.28;98652.36;1823716;78;21117;-78
2021/01/24 04:35:05;;;;;;;30.85;17.12;;;;;;;0.70;86.25;98652.71;1823391;78;21136;-78
2021/01/24 04:37:31;;;;;;;41.88;19.32;;;;;;;0.71;86.27;98651.72;1823640;78;21151;-78
2021/01/24 04:39:57;;;;;;;55.28;23.92;;;;;;;0.70;86.29;98649.61;1823476;78;21263;-78
2021/01/24 04:42:27;;;;;;;51.48;23.67;;;;;;;0.69;86.29;98650.57;1823581;78;21583;-78
2021/01/24 04:44:55;;;;;;;53.48;23.75;;;;;;;0.67;86.31;98646.45;1823631;78;21172;-78
2021/01/24 04:47:22;;;;;;;54.55;23.70;;;;;;;0.67;86.31;98645.15;1823158;78;21549;-78
2021/01/24 04:49:49;;;;;;;51.53;22.65;;;;;;;0.68;86.31;98644.15;1823710;78;21112;-78
2021/01/24 04:52:15;;;;;;;53.75;24.92;;;;;;;0.71;86.31;98641.22;1823180;78;22093;-78
2021/01/24 04:54:44;;;;;;;43.55;21.55;;;;;;;0.72;86.34;98638.95;1823433;78;21152;-78
2021/01/24 04:57:11;;;;;;;38.17;19.73;;;;;;;0.73;86.33;98639.29;1823614;78;21115;-78
2021/01/24 04:59:38;;;;;;;35.63;18.95;;;;;;;0.74;86.32;98639.64;1823379;78;21135;-78
2021/01/24 05:02:09;;;;;;;37.93;20.88;;;;;;;0.77;86.33;98638.02;1823370;78;21185;-78
2021/01/24 05:04:35;;;;;;;39.90;21.62;;;;;;;0.76;86.34;98637.67;1814596;78;21291;-78
2021/01/24 05:07:01;;;;;;;40.73;20.65;;;;;;;0.73;86.34;98635.36;1792723;80;21108;-78
2021/01/24 05:09:28;;;;;;;37.05;21.05;;;;;;;0.70;86.31;98628.63;1794314;80;21139;-78
2021/01/24 05:11:54;;;;;;;28.92;16.32;;;;;;;0.70;86.31;98631.24;1794582;80;21651;-78
2021/01/24 05:14:23;;;;;;;34.33;17.20;;;;;;;0.68;86.30;98633.66;1795277;80;21131;-78
2021/01/24 05:16:51;;;;;;;27.70;14.87;;;;;;;0.68;86.30;98630.55;1787969;79;21943;-78
2021/01/24 05:19:18;;;;;;;24.70;14.20;;;;;;;0.67;86.32;98638.08;1787555;79;21167;-78
2021/01/24 05:21:44;;;;;;;25.40;13.50;;;;;;;0.66;86.34;98637.77;1760941;80;21131;-78
2021/01/24 05:24:12;;;;;;;27.82;15.40;;;;;;;0.66;86.30;98639.55;1789795;78;21211;-78
2021/01/24 05:26:43;;;;;;;28.23;15.00;;;;;;;0.68;86.33;98639.73;1823529;78;21084;-79
2021/01/24 05:29:26;;;;;;;32.38;18.65;;;;;;;0.73;86.35;98635.36;1823473;78;22129;-79
2021/01/24 05:31:56;;;;;;;32.60;18.12;;;;;;;0.71;86.35;98632.05;1823519;78;21147;-78
2021/01/24 05:34:26;;;;;;;30.62;17.12;;;;;;;0.68;86.33;98633.66;1823459;78;21258;-78
2021/01/24 05:36:53;;;;;;;37.50;18.87;;;;;;;0.67;86.32;98632.03;1823701;78;21171;-78
2021/01/24 05:39:20;;;;;;;32.33;17.35;;;;;;;0.62;86.33;98629.02;1823309;78;21111;-78
2021/01/24 05:41:51;;;;;;;42.43;20.72;;;;;;;0.60;86.33;98630.98;1823772;78;22243;-78
2021/01/24 05:44:18;;;;;;;52.58;24.43;;;;;;;0.62;86.37;98625.09;1821984;78;21611;-78
2021/01/24 05:46:44;;;;;;;55.33;23.42;;;;;;;0.61;86.36;98621.64;1823416;78;21171;-78
2021/01/24 05:49:13;;;;;;;53.55;24.00;;;;;;;0.63;86.36;98616.26;1823558;78;21120;-78
2021/01/24 05:51:40;;;;;;;50.03;23.13;;;;;;;0.66;86.34;98614.16;1823771;78;21124;-78
2021/01/24 05:54:06;;;;;;;44.27;20.77;;;;;;;0.73;86.34;98611.75;1823607;78;21350;-78
2021/01/24 05:56:32;;;;;;;42.17;22.00;;;;;;;0.77;86.35;98607.84;1823282;78;21143;-78
2021/01/24 05:59:01;;;;;;;48.40;22.27;;;;;;;0.78;86.35;98607.68;1823599;78;21115;-78
2021/01/24 06:01:29;;;;;;;43.38;22.00;;;;;;;0.78;86.34;98605.54;1823374;78;21123;-78
2021/01/24 06:03:57;;;;;;;46.28;23.40;;;;;;;0.71;86.38;98601.39;1823657;78;21187;-78
2021/01/24 06:06:24;;;;;;;45.98;23.25;;;;;;;0.66;86.39;98605.45;1823415;78;22202;-78
2021/01/24 06:08:50;;;;;;;41.85;22.20;;;;;;;0.64;86.40;98601.66;1823171;78;21170;-78
2021/01/24 06:11:17;;;;;;;42.08;21.10;;;;;;;0.61;86.40;98597.20;1823501;78;21131;-78
2021/01/24 06:13:46;;;;;;;45.00;20.02;;;;;;;0.57;86.41;98598.48;1823025;78;21671;-78
2021/01/24 06:16:22;;;;;;;39.03;18.17;;;;;;;0.57;86.41;98595.86;1823736;78;21548;-78
2021/01/24 06:18:57;;;;;;;33.80;18.10;;;;;;;0.57;86.41;98593.23;1823387;78;22029;-78
2021/01/24 06:21:29;;;;;;;30.15;17.07;;;;;;;0.56;86.40;98588.98;1805029;78;21211;-77
2021/01/24 06:24:00;;;;;;;28.62;16.67;;;;;;;0.58;86.38;98587.02;1776941;78;21175;-78
2021/01/24 06:26:27;;;;;;;35.88;20.25;;;;;;;0.59;86.35;98587.37;1806721;78;21629;-79
2021/01/24 06:29:01;;;;;;;35.00;19.55;;;;;;;0.58;86.36;98589.64;1778909;78;21208;-78
2021/01/24 06:31:28;;;;;;;35.23;20.57;;;;;;;0.57;86.38;98581.44;1804564;78;21215;-78
2021/01/24 06:33:54;;;;;;;42.17;19.95;;;;;;;0.59;86.40;98579.50;1784781;80;21227;-78
2021/01/24 06:36:20;;;;;;;41.63;21.45;;;;;;;0.60;86.39;98582.47;1721344;80;21175;-78
2021/01/24 06:38:55;;;;;;;43.52;21.75;;;;;;;0.55;86.39;98582.09;1784643;80;21135;-78
2021/01/24 06:41:46;;;;;;;40.45;20.32;;;;;;;0.52;86.39;98590.26;1806270;79;21136;-78
2021/01/24 06:44:39;;;;;;;38.73;19.65;;;;;;;0.53;86.39;98591.91;1810137;79;21152;-78
2021/01/24 06:47:31;;;;;;;39.27;18.17;;;;;;;0.54;86.40;98596.16;1810189;79;21648;-78
2021/01/24 06:49:57;;;;;;;37.83;20.00;;;;;;;0.52;86.40;98592.88;1809941;79;21133;-78
2021/01/24 06:52:23;;;;;;;34.75;18.67;;;;;;;0.49;86.42;98593.50;1809834;79;21203;-78
2021/01/24 06:54:50;;;;;;;38.23;19.10;;;;;;;0.49;86.43;98601.37;1810456;78;21164;-78
2021/01/24 06:57:18;;;;;;;35.43;19.82;;;;;;;0.47;86.44;98596.77;1810250;79;21195;-78
2021/01/24 06:59:45;;;;;;;31.65;19.05;;;;;;;0.47;86.45;98604.64;1809984;79;21133;-78
2021/01/24 07:02:36;;;;;;;36.70;19.10;;;;;;;0.45;86.44;98605.77;1810010;78;21112;-78
2021/01/24 07:05:23;;;;;;;38.02;20.43;;;;;;;0.46;86.48;98604.78;1810052;79;21108;-78
2021/01/24 07:07:55;;;;;;;36.00;19.20;;;;;;;0.42;86.46;98606.87;1810391;79;21092;-78
2021/01/24 07:10:42;;;;;;;37.78;19.57;;;;;;;0.43;86.46;98603.29;1810050;79;21134;-78
2021/01/24 07:13:30;;;;;;;39.03;19.67;;;;;;;0.45;86.48;98610.53;1810140;79;21191;-78
2021/01/24 07:16:00;;;;;;;46.70;21.00;;;;;;;0.49;86.49;98609.23;1809384;79;21120;-78
2021/01/24 07:18:42;;;;;;;50.38;23.73;;;;;;;0.51;86.49;98614.34;1791151;80;21180;-78
2021/01/24 07:21:11;;;;;;;51.53;23.10;;;;;;;0.54;86.49;98619.77;1751083;80;21153;-79
2021/01/24 07:23:39;;;;;;;46.08;22.93;;;;;;;0.61;86.49;98619.50;1789289;80;21205;-78
2021/01/24 07:26:06;;;;;;;46.63;24.30;;;;;;;0.64;86.54;98619.19;1791019;80;21231;-78
2021/01/24 07:28:32;;;;;;;45.40;23.57;;;;;;;0.64;86.56;98620.50;1791034;80;21132;-78
2021/01/24 07:31:03;;;;;;;50.45;24.40;;;;;;;0.66;86.58;98625.13;1760349;80;21101;-78
2021/01/24 07:33:30;;;;;;;53.95;25.30;;;;;;;0.68;86.58;98621.86;1791119;80;21136;-78
2021/01/24 07:36:02;;;;;;;50.40;25.68;;;;;;;0.70;86.60;98615.98;1777575;80;21263;-78
2021/01/24 07:38:28;;;;;;;55.03;28.27;;;;;;;0.73;86.61;98620.92;1767670;81;21119;-79
2021/01/24 07:40:57;;;;;;;52.20;26.65;;;;;;;0.72;86.60;98620.58;1767786;81;21154;-79
2021/01/24 07:43:25;;;;;;;55.55;29.85;;;;;;;0.72;86.61;98617.96;1767931;80;21153;-79
2021/01/24 07:45:52;;;;;;;52.17;28.77;;;;;;;0.74;86.61;98616.82;1740378;81;21138;-79
2021/01/24 07:48:18;;;;;;;52.08;24.77;;;;;;;0.77;86.62;98615.72;1767901;81;21201;-79
2021/01/24 07:50:44;;;;;;;61.13;29.42;;;;;;;0.82;86.57;98612.13;1767801;81;21158;-79
2021/01/24 07:53:11;;;;;;;65.28;32.60;;;;;;;0.90;86.57;98616.14;1767621;81;21143;-80
2021/01/24 07:55:37;;;;;;;66.57;34.90;;;;;;;0.95;86.56;98613.89;1767803;81;21134;-79
2021/01/24 07:58:05;;;;;;;66.20;34.50;;;;;;;0.99;86.58;98614.73;1767943;81;21600;-79
2021/01/24 08:00:34;;;;;;;111.47;63.78;;;;;;;1.01;86.59;98614.59;1767997;81;21210;-78
2021/01/24 08:03:01;;;;;;;77.17;40.48;;;;;;;0.95;86.61;98619.14;1784270;79;21178;-79
2021/01/24 08:05:33;;;;;;;89.62;40.95;;;;;;;0.94;86.63;98615.69;1787278;79;21632;-79
2021/01/24 08:08:00;;;;;;;84.67;41.05;;;;;;;0.95;86.63;98616.52;1789848;80;21137;-79
2021/01/24 08:10:31;;;;;;;97.30;45.60;;;;;;;0.96;86.64;98619.45;1783911;80;21116;-79
2021/01/24 08:12:59;;;;;;;225.93;74.53;;;;;;;0.96;86.61;98619.45;1783124;80;21216;-78
2021/01/24 08:15:26;;;;;;;635.73;189.35;;;;;;;1.00;86.58;98616.87;1783548;80;21891;-79
2021/01/24 08:17:52;;;;;;;401.85;108.60;;;;;;;0.98;86.55;98619.66;1778617;80;21207;-79
2021/01/24 08:20:20;;;;;;;217.70;64.42;;;;;;;0.97;86.58;98619.80;1794378;80;21123;-79
2021/01/24 08:22:47;;;;;;;95.35;35.50;;;;;;;0.97;86.58;98623.73;1805332;79;21124;-79
2021/01/24 08:25:14;;;;;;;59.42;28.20;;;;;;;0.97;86.57;98615.87;1794473;80;22166;-80
2021/01/24 08:27:40;;;;;;;69.03;32.10;;;;;;;0.97;86.55;98618.49;1794553;80;21602;-79
2021/01/24 08:30:08;;;;;;;64.30;32.42;;;;;;;0.98;86.55;98618.83;1794679;80;21155;-78
2021/01/24 08:32:34;;;;;;;73.60;33.13;;;;;;;1.02;86.54;98616.24;1794302;80;21628;-78
2021/01/24 08:35:00;;;;;;;73.10;33.60;;;;;;;1.06;86.54;98611.00;1794612;78;21164;-78
2021/01/24 08:37:27;;;;;;;111.47;41.53;;;;;;;1.11;86.53;98619.73;1796978;79;21549;-79
2021/01/24 08:39:54;;;;;;;119.62;44.77;;;;;;;1.13;86.56;98619.91;1789086;79;21195;-79
2021/01/24 08:42:20;;;;;;;170.68;53.90;;;;;;;1.16;86.57;98616.17;1755681;80;21172;-74
2021/01/24 08:45:05;;;;;;;169.72;57.30;;;;;;;1.16;86.57;98614.86;1761807;80;21128;-75
2021/01/24 08:47:31;;;;;;;341.38;96.00;;;;;;;1.19;86.55;98621.94;1804515;79;21589;-75
2021/01/24 08:50:07;;;;;;;500.72;138.88;;;;;;;1.20;86.51;98622.73;1778670;80;21486;-75
2021/01/24 08:52:34;;;;;;;325.50;100.75;;;;;;;1.21;86.50;98622.59;1781286;79;21216;-75
2021/01/24 08:55:01;;;;;;;160.88;64.03;;;;;;;1.23;86.50;98628.50;1810603;79;21148;-75
2021/01/24 08:57:34;;;;;;;156.47;63.65;;;;;;;1.23;86.47;98625.88;1810466;79;21181;-75
2021/01/24 09:00:07;;;;;;;135.93;58.28;;;;;;;1.25;86.49;98618.68;1810549;79;21540;-78
2021/01/24 09:02:39;;;;;;;112.88;51.85;;;;;;;1.31;86.45;98628.56;1810524;79;21569;-78
2021/01/24 09:05:09;;;;;;;110.15;51.02;;;;;;;1.36;86.43;98624.98;1810631;79;21180;-78
2021/01/24 09:07:46;;;;;;;87.22;41.23;;;;;;;1.43;86.42;98627.81;1810551;79;21503;-78
2021/01/24 09:10:14;;;;;;;90.77;42.88;;;;;;;1.47;86.37;98627.36;1809777;79;21211;-80
2021/01/24 09:12:40;;;;;;;86.00;41.95;;;;;;;1.48;86.36;98619.79;1810529;79;21160;-78
2021/01/24 09:15:08;;;;;;;166.60;77.72;;;;;;;1.52;86.37;98618.98;1810700;79;21541;-79
2021/01/24 09:17:34;;;;;;;358.20;179.47;;;;;;;1.51;86.37;98619.98;1787607;79;21246;-78
2021/01/24 09:20:00;;;;;;;257.02;122.17;;;;;;;1.46;86.38;98616.51;1778622;80;21144;-78
2021/01/24 09:22:27;;;;;;;152.60;76.17;;;;;;;1.40;86.39;98623.70;1779364;80;21121;-78
2021/01/24 09:24:53;;;;;;;244.62;103.67;;;;;;;1.39;86.34;98622.53;1778587;80;21826;-78
2021/01/24 09:27:19;;;;;;;214.48;88.97;;;;;;;1.38;86.30;98623.02;1778611;80;21201;-78
2021/01/24 09:29:46;;;;;;;158.10;70.67;;;;;;;1.37;86.31;98617.42;1788428;79;21135;-78
2021/01/24 09:32:12;;;;;;;138.95;67.78;;;;;;;1.39;86.31;98619.42;1802710;79;21144;-78
2021/01/24 09:34:38;;;;;;;214.08;101.07;;;;;;;1.42;86.30;98624.36;1793785;79;21577;-76
2021/01/24 09:37:05;;;;;;;211.92;96.45;;;;;;;1.49;86.25;98621.44;1793063;79;21206;-77
2021/01/24 09:39:31;;;;;;;158.52;73.28;;;;;;;1.53;86.26;98617.19;1789837;79;22097;-76
2021/01/24 09:41:58;;;;;;;119.50;56.30;;;;;;;1.53;86.27;98617.19;1792704;80;21104;-76
2021/01/24 09:44:24;;;;;;;123.07;56.42;;;;;;;1.58;86.25;98618.87;1792891;80;21210;-77
2021/01/24 09:46:51;;;;;;;127.02;56.92;;;;;;;1.61;86.22;98615.92;1792823;80;21112;-76
2021/01/24 09:49:17;;;;;;;153.45;72.78;;;;;;;1.61;86.20;98612.81;1793092;80;21140;-76
2021/01/24 09:51:44;;;;;;;135.57;61.65;;;;;;;1.51;86.20;98613.42;1792778;80;22173;-77
2021/01/24 09:54:10;;;;;;;132.63;61.10;;;;;;;1.53;86.22;98607.99;1793028;80;21151;-77
2021/01/24 09:56:36;;;;;;;133.82;55.80;;;;;;;1.54;86.18;98610.97;1793020;80;21116;-77
2021/01/24 09:59:03;;;;;;;126.65;54.13;;;;;;;1.55;86.18;98608.68;1792794;80;21168;-77
2021/01/24 10:01:29;;;;;;;114.40;51.30;;;;;;;1.59;86.15;98612.61;1793107;80;21041;-77
2021/01/24 10:03:55;;;;;;;118.72;53.73;;;;;;;1.60;86.13;98611.64;1792948;80;21200;-77
2021/01/24 10:06:22;;;;;;;116.67;53.68;;;;;;;1.62;86.13;98614.95;1792940;80;21565;-77
2021/01/24 10:08:48;;;;;;;124.20;55.80;;;;;;;1.66;86.11;98611.00;1792813;79;21104;-77
2021/01/24 10:11:15;;;;;;;120.25;53.30;;;;;;;1.70;86.11;98613.66;1792761;80;21199;-76
2021/01/24 10:13:41;;;;;;;123.20;55.38;;;;;;;1.74;86.10;98603.99;1792862;80;21064;-77
2021/01/24 10:16:08;;;;;;;135.97;61.63;;;;;;;1.73;86.11;98605.45;1792929;80;22004;-77
2021/01/24 10:18:34;;;;;;;135.82;62.10;;;;;;;1.71;86.12;98603.00;1793095;80;21116;-77
2021/01/24 10:21:01;;;;;;;133.67;59.30;;;;;;;1.72;86.14;98604.66;1792706;80;21120;-77
2021/01/24 10:23:27;;;;;;;118.62;54.30;;;;;;;1.73;86.12;98610.70;1792955;80;21171;-77
2021/01/24 10:25:54;;;;;;;120.80;53.92;;;;;;;1.76;86.07;98604.64;1792837;80;21144;-77
2021/01/24 10:28:21;;;;;;;135.88;60.08;;;;;;;1.82;86.04;98596.64;1793000;79;21207;-77
2021/01/24 10:30:47;;;;;;;191.25;75.32;;;;;;;1.84;86.01;98597.28;1792927;79;21143;-77
2021/01/24 10:33:14;;;;;;;140.37;58.63;;;;;;;1.84;85.99;98602.06;1792823;80;21135;-77
2021/01/24 10:35:40;;;;;;;115.45;51.70;;;;;;;1.81;85.99;98594.50;1790840;79;21045;-77
2021/01/24 10:38:07;;;;;;;126.80;57.13;;;;;;;1.83;85.96;98594.35;1761570;81;21132;-76
2021/01/24 10:40:34;;;;;;;80.28;37.83;;;;;;;1.85;85.95;98592.38;1761624;81;21204;-77
2021/01/24 10:43:05;;;;;;;96.47;41.65;;;;;;;1.87;85.86;98583.83;1761290;81;21136;-76
2021/01/24 10:45:31;;;;;;;;;;;;;;;1.94;85.87;98583.52;1779432;80;21160;-76
2021/01/24 10:47:59;;;;;;;135.32;57.88;;;;;;;2.01;85.86;98591.09;1789307;78;20260;-76
2021/01/24 10:50:25;;;;;;;144.95;64.00;;;;;;;2.01;85.84;98588.47;1786695;79;21576;-76
2021/01/24 10:52:52;;;;;;;123.78;57.50;;;;;;;2.08;85.85;98585.53;1785718;80;21223;-76
2021/01/24 10:55:19;;;;;;;105.75;50.92;;;;;;;2.10;85.88;98592.78;1785508;79;21140;-76
2021/01/24 10:57:45;;;;;;;95.15;45.60;;;;;;;2.07;85.87;98586.53;1785871;79;21148;-76
2021/01/24 11:00:12;;;;;;;89.87;39.73;;;;;;;2.01;85.85;98586.66;1785522;80;21119;-76
2021/01/24 11:02:38;;;;;;;78.05;37.45;;;;;;;1.96;85.83;98588.97;1785678;80;21132;-76
2021/01/24 11:05:06;;;;;;;83.72;40.98;;;;;;;1.91;85.83;98586.47;1785658;80;21197;-76
2021/01/24 11:07:32;;;;;;;114.92;51.02;;;;;;;1.88;85.79;98582.85;1785578;80;21226;-77
2021/01/24 11:09:58;;;;;;;79.47;35.58;;;;;;;1.90;85.77;98579.59;1785738;80;21501;-77
2021/01/24 11:12:25;;;;;;;86.40;40.30;;;;;;;1.88;85.71;98580.22;1785605;79;21139;-77
2021/01/24 11:14:51;;;;;;;71.22;32.53;;;;;;;1.85;85.71;98576.12;1785822;80;21065;-77
2021/01/24 11:17:18;;;;;;;105.05;42.95;;;;;;;1.85;85.67;98570.03;1785675;80;21193;-77
2021/01/24 11:19:45;;;;;;;77.75;33.70;;;;;;;1.86;85.67;98565.12;1785956;80;21132;-77
2021/01/24 11:22:12;;;;;;;99.58;43.63;;;;;;;1.89;85.69;98565.63;1785623;80;21109;-76
2021/01/24 11:24:38;;;;;;;104.67;47.70;;;;;;;1.97;85.69;98564.83;1785919;80;21191;-77
2021/01/24 11:27:05;;;;;;;96.20;46.02;;;;;;;2.10;85.71;98564.35;1785889;80;21152;-77
2021/01/24 11:29:32;;;;;;;88.37;42.15;;;;;;;2.19;85.68;98561.56;1785867;80;21171;-77